sensor_id;sensor_type;location;lat;lon;timestamp;temperature;humidity
23149;DHT22;11743;51.228;22.498;2024-03-07T00:00:06;0.20;99.90
23149;DHT22;11743;51.228;22.498;2024-03-07T00:00:40;0.20;99.90
23149;DHT22;11743;51.228;22.498;2024-03-07T00:01:02;0.20;99.90
23149;DHT22;11743;51.228;22.498;2024-03-07T00:01:25;0.20;99.90
23149;DHT22;11743;51.228;22.498;2024-03-07T00:01:48;0.20;99.90
23149;DHT22;11743;51.228;22.498;2024-03-07T00:02:10;0.20;99.90
23149;DHT22;11743;51.228;22.498;2024-03-07T00:02:32;0.20;99.90
23149;DHT22;11743;51.228;22.498;2024-03-07T00:02:55;0.20;99.90
23149;DHT22;11743;51.228;22.498;2024-03-07T00:03:17;0.40;99.90
23149;DHT22;11743;51.228;22.498;2024-03-07T00:03:39;0.20;99.90
23149;DHT22;11743;51.228;22.498;2024-03-07T00:04:01;0.20;99.90
23149;DHT22;11743;51.228;22.498;2024-03-07T00:04:23;0.20;99.90
23149;DHT22;11743;51.228;22.498;2024-03-07T00:04:46;0.20;99.90
23149;DHT22;11743;51.228;22.498;2024-03-07T00:05:08;0.20;99.90
23149;DHT22;11743;51.228;22.498;2024-03-07T00:05:30;0.20;99.90
23149;DHT22;11743;51.228;22.498;2024-03-07T00:05:52;0.20;99.90
23149;DHT22;11743;51.228;22.498;2024-03-07T00:06:14;0.10;99.90
23149;DHT22;11743;51.228;22.498;2024-03-07T00:06:35;0.10;99.90
23149;DHT22;11743;51.228;22.498;2024-03-07T00:06:57;0.10;99.90
23149;DHT22;11743;51.228;22.498;2024-03-07T00:07:19;0.10;99.90
23149;DHT22;11743;51.228;22.498;2024-03-07T00:07:42;0.10;99.90
23149;DHT22;11743;51.228;22.498;2024-03-07T00:08:04;0.10;99.90
23149;DHT22;11743;51.228;22.498;2024-03-07T00:08:27;0.10;99.90
23149;DHT22;11743;51.228;22.498;2024-03-07T00:08:49;0.10;99.90
23149;DHT22;11743;51.228;22.498;2024-03-07T00:09:11;0.10;99.90
23149;DHT22;11743;51.228;22.498;2024-03-07T00:09:33;0.10;99.90
23149;DHT22;11743;51.228;22.498;2024-03-07T00:09:56;0.10;99.90
23149;DHT22;11743;51.228;22.498;2024-03-07T00:10:19;0.10;99.90
23149;DHT22;11743;51.228;22.498;2024-03-07T00:10:43;0.10;99.90
23149;DHT22;11743;51.228;22.498;2024-03-07T00:11:06;0.10;99.90
23149;DHT22;11743;51.228;22.498;2024-03-07T00:11:29;0.10;99.90
23149;DHT22;11743;51.228;22.498;2024-03-07T00:11:53;0.10;99.90
23149;DHT22;11743;51.228;22.498;2024-03-07T00:12:14;0.00;99.90
23149;DHT22;11743;51.228;22.498;2024-03-07T00:12:40;0.10;99.90
23149;DHT22;11743;51.228;22.498;2024-03-07T00:13:04;0.00;99.90
23149;DHT22;11743;51.228;22.498;2024-03-07T00:13:26;0.10;99.90
23149;DHT22;11743;51.228;22.498;2024-03-07T00:13:49;0.00;99.90
23149;DHT22;11743;51.228;22.498;2024-03-07T00:14:11;0.00;99.90
23149;DHT22;11743;51.228;22.498;2024-03-07T00:14:33;0.00;99.90
23149;DHT22;11743;51.228;22.498;2024-03-07T00:14:57;0.00;99.90
23149;DHT22;11743;51.228;22.498;2024-03-07T00:15:19;0.00;99.90
23149;DHT22;11743;51.228;22.498;2024-03-07T00:15:40;0.00;99.90
23149;DHT22;11743;51.228;22.498;2024-03-07T00:16:03;0.00;99.90
23149;DHT22;11743;51.228;22.498;2024-03-07T00:16:25;0.00;99.90
23149;DHT22;11743;51.228;22.498;2024-03-07T00:16:47;0.00;99.90
23149;DHT22;11743;51.228;22.498;2024-03-07T00:17:09;0.00;99.90
23149;DHT22;11743;51.228;22.498;2024-03-07T00:17:31;0.00;99.90
23149;DHT22;11743;51.228;22.498;2024-03-07T00:17:53;0.00;99.90
23149;DHT22;11743;51.228;22.498;2024-03-07T00:18:15;0.00;99.90
23149;DHT22;11743;51.228;22.498;2024-03-07T00:18:37;0.00;99.90
23149;DHT22;11743;51.228;22.498;2024-03-07T00:18:59;0.00;99.90
23149;DHT22;11743;51.228;22.498;2024-03-07T00:19:22;0.00;99.90
23149;DHT22;11743;51.228;22.498;2024-03-07T00:19:48;0.00;99.90
23149;DHT22;11743;51.228;22.498;2024-03-07T00:20:11;0.00;99.90
23149;DHT22;11743;51.228;22.498;2024-03-07T00:20:37;0.00;99.90
23149;DHT22;11743;51.228;22.498;2024-03-07T00:20:59;0.00;99.90
23149;DHT22;11743;51.228;22.498;2024-03-07T00:21:21;-0.10;99.90
23149;DHT22;11743;51.228;22.498;2024-03-07T00:21:44;-0.10;99.90
23149;DHT22;11743;51.228;22.498;2024-03-07T00:22:06;-0.10;99.90
23149;DHT22;11743;51.228;22.498;2024-03-07T00:22:28;-0.10;99.90
23149;DHT22;11743;51.228;22.498;2024-03-07T00:22:51;-0.10;99.90
23149;DHT22;11743;51.228;22.498;2024-03-07T00:23:13;-0.10;99.90
23149;DHT22;11743;51.228;22.498;2024-03-07T00:23:35;-0.10;99.90
23149;DHT22;11743;51.228;22.498;2024-03-07T00:23:56;-0.10;99.90
23149;DHT22;11743;51.228;22.498;2024-03-07T00:24:19;-0.10;99.90
23149;DHT22;11743;51.228;22.498;2024-03-07T00:24:40;-0.10;99.90
23149;DHT22;11743;51.228;22.498;2024-03-07T00:25:05;-0.10;99.90
23149;DHT22;11743;51.228;22.498;2024-03-07T00:25:27;-0.10;99.90
23149;DHT22;11743;51.228;22.498;2024-03-07T00:25:49;-0.10;99.90
23149;DHT22;11743;51.228;22.498;2024-03-07T00:26:11;-0.20;99.90
23149;DHT22;11743;51.228;22.498;2024-03-07T00:26:32;-0.20;99.90
23149;DHT22;11743;51.228;22.498;2024-03-07T00:26:55;-0.20;99.90
23149;DHT22;11743;51.228;22.498;2024-03-07T00:27:18;-0.20;99.90
23149;DHT22;11743;51.228;22.498;2024-03-07T00:27:42;0.50;99.90
23149;DHT22;11743;51.228;22.498;2024-03-07T00:28:07;-0.20;99.90
23149;DHT22;11743;51.228;22.498;2024-03-07T00:28:29;-0.20;99.90
23149;DHT22;11743;51.228;22.498;2024-03-07T00:28:54;-0.20;99.90
23149;DHT22;11743;51.228;22.498;2024-03-07T00:29:16;-0.20;99.90
23149;DHT22;11743;51.228;22.498;2024-03-07T00:29:40;-0.20;99.90
23149;DHT22;11743;51.228;22.498;2024-03-07T00:30:03;-0.20;99.90
23149;DHT22;11743;51.228;22.498;2024-03-07T00:30:26;-0.20;99.90
23149;DHT22;11743;51.228;22.498;2024-03-07T00:30:50;-0.20;99.90
23149;DHT22;11743;51.228;22.498;2024-03-07T00:31:12;-0.20;99.90
23149;DHT22;11743;51.228;22.498;2024-03-07T00:31:35;-0.20;99.90
23149;DHT22;11743;51.228;22.498;2024-03-07T00:31:56;-0.20;99.90
23149;DHT22;11743;51.228;22.498;2024-03-07T00:32:20;-0.20;99.90
23149;DHT22;11743;51.228;22.498;2024-03-07T00:32:42;-0.20;99.90
23149;DHT22;11743;51.228;22.498;2024-03-07T00:33:04;-0.20;99.90
23149;DHT22;11743;51.228;22.498;2024-03-07T00:33:26;-0.20;99.90
23149;DHT22;11743;51.228;22.498;2024-03-07T00:34:08;-0.20;99.90
23149;DHT22;11743;51.228;22.498;2024-03-07T00:34:39;-0.20;99.90
23149;DHT22;11743;51.228;22.498;2024-03-07T00:35:02;-0.20;99.90
23149;DHT22;11743;51.228;22.498;2024-03-07T00:35:26;-0.20;99.90
23149;DHT22;11743;51.228;22.498;2024-03-07T00:35:49;-0.20;99.90
23149;DHT22;11743;51.228;22.498;2024-03-07T00:36:11;-0.20;99.90
23149;DHT22;11743;51.228;22.498;2024-03-07T00:36:33;-0.20;99.90
23149;DHT22;11743;51.228;22.498;2024-03-07T00:36:55;-0.20;99.90
23149;DHT22;11743;51.228;22.498;2024-03-07T00:37:19;-0.20;99.90
23149;DHT22;11743;51.228;22.498;2024-03-07T00:37:41;-0.20;99.90
23149;DHT22;11743;51.228;22.498;2024-03-07T00:38:03;-0.20;99.90
23149;DHT22;11743;51.228;22.498;2024-03-07T00:38:25;-0.20;99.90
23149;DHT22;11743;51.228;22.498;2024-03-07T00:38:47;-0.20;99.90
23149;DHT22;11743;51.228;22.498;2024-03-07T00:39:10;-0.20;99.90
23149;DHT22;11743;51.228;22.498;2024-03-07T00:39:34;-0.60;99.90
23149;DHT22;11743;51.228;22.498;2024-03-07T00:39:57;-0.20;99.90
23149;DHT22;11743;51.228;22.498;2024-03-07T00:40:19;-0.20;99.90
23149;DHT22;11743;51.228;22.498;2024-03-07T00:40:41;-0.30;99.90
23149;DHT22;11743;51.228;22.498;2024-03-07T00:41:03;-0.30;99.90
23149;DHT22;11743;51.228;22.498;2024-03-07T00:41:24;-0.30;99.90
23149;DHT22;11743;51.228;22.498;2024-03-07T00:41:46;-0.20;99.90
23149;DHT22;11743;51.228;22.498;2024-03-07T00:42:09;-0.30;99.90
23149;DHT22;11743;51.228;22.498;2024-03-07T00:42:31;-0.30;99.90
23149;DHT22;11743;51.228;22.498;2024-03-07T00:42:52;-0.30;99.90
23149;DHT22;11743;51.228;22.498;2024-03-07T00:43:15;-0.30;99.90
23149;DHT22;11743;51.228;22.498;2024-03-07T00:43:36;-0.30;99.90
23149;DHT22;11743;51.228;22.498;2024-03-07T00:43:58;-0.30;99.90
23149;DHT22;11743;51.228;22.498;2024-03-07T00:44:20;0.00;99.90
23149;DHT22;11743;51.228;22.498;2024-03-07T00:44:42;-0.30;99.90
23149;DHT22;11743;51.228;22.498;2024-03-07T00:45:05;-0.30;99.90
23149;DHT22;11743;51.228;22.498;2024-03-07T00:45:28;-0.30;99.90
23149;DHT22;11743;51.228;22.498;2024-03-07T00:45:49;-0.30;99.90
23149;DHT22;11743;51.228;22.498;2024-03-07T00:46:11;-0.30;99.90
23149;DHT22;11743;51.228;22.498;2024-03-07T00:46:33;-0.30;99.90
23149;DHT22;11743;51.228;22.498;2024-03-07T00:46:56;-0.30;99.90
23149;DHT22;11743;51.228;22.498;2024-03-07T00:47:18;-0.30;99.90
23149;DHT22;11743;51.228;22.498;2024-03-07T00:47:40;-0.30;99.90
23149;DHT22;11743;51.228;22.498;2024-03-07T00:48:03;-0.40;99.90
23149;DHT22;11743;51.228;22.498;2024-03-07T00:48:25;-0.40;99.90
23149;DHT22;11743;51.228;22.498;2024-03-07T00:48:47;-0.40;99.90
23149;DHT22;11743;51.228;22.498;2024-03-07T00:49:09;-0.40;99.90
23149;DHT22;11743;51.228;22.498;2024-03-07T00:49:31;-0.40;99.90
23149;DHT22;11743;51.228;22.498;2024-03-07T00:49:53;-0.40;99.90
23149;DHT22;11743;51.228;22.498;2024-03-07T00:50:15;-0.40;99.90
23149;DHT22;11743;51.228;22.498;2024-03-07T00:50:37;-0.40;99.90
23149;DHT22;11743;51.228;22.498;2024-03-07T00:50:59;-0.40;99.90
23149;DHT22;11743;51.228;22.498;2024-03-07T00:51:21;-0.40;99.90
23149;DHT22;11743;51.228;22.498;2024-03-07T00:51:43;-0.50;99.90
23149;DHT22;11743;51.228;22.498;2024-03-07T00:52:06;-0.50;99.90
23149;DHT22;11743;51.228;22.498;2024-03-07T00:52:27;-0.50;99.90
23149;DHT22;11743;51.228;22.498;2024-03-07T00:52:49;-0.50;99.90
23149;DHT22;11743;51.228;22.498;2024-03-07T00:53:11;-0.50;99.90
23149;DHT22;11743;51.228;22.498;2024-03-07T00:53:33;-0.50;99.90
23149;DHT22;11743;51.228;22.498;2024-03-07T00:53:55;-0.50;99.90
23149;DHT22;11743;51.228;22.498;2024-03-07T00:54:17;-0.50;99.90
23149;DHT22;11743;51.228;22.498;2024-03-07T00:54:39;-0.50;99.90
23149;DHT22;11743;51.228;22.498;2024-03-07T00:55:23;-0.50;99.90
23149;DHT22;11743;51.228;22.498;2024-03-07T00:55:45;-0.50;99.90
23149;DHT22;11743;51.228;22.498;2024-03-07T00:56:07;-0.50;99.90
23149;DHT22;11743;51.228;22.498;2024-03-07T00:56:28;-0.50;99.90
23149;DHT22;11743;51.228;22.498;2024-03-07T00:56:51;-0.50;99.90
23149;DHT22;11743;51.228;22.498;2024-03-07T00:57:13;-0.50;99.90
23149;DHT22;11743;51.228;22.498;2024-03-07T00:57:35;-0.50;99.90
23149;DHT22;11743;51.228;22.498;2024-03-07T00:57:57;-0.50;99.90
23149;DHT22;11743;51.228;22.498;2024-03-07T00:58:19;-0.50;99.90
23149;DHT22;11743;51.228;22.498;2024-03-07T00:58:41;-0.50;99.90
23149;DHT22;11743;51.228;22.498;2024-03-07T00:59:03;-0.50;99.90
23149;DHT22;11743;51.228;22.498;2024-03-07T00:59:25;-0.50;99.90
23149;DHT22;11743;51.228;22.498;2024-03-07T00:59:47;-0.50;99.90
23149;DHT22;11743;51.228;22.498;2024-03-07T01:00:10;-0.50;99.90
23149;DHT22;11743;51.228;22.498;2024-03-07T01:00:36;-0.50;99.90
23149;DHT22;11743;51.228;22.498;2024-03-07T01:00:58;-0.50;99.90
23149;DHT22;11743;51.228;22.498;2024-03-07T01:01:21;-0.50;99.90
23149;DHT22;11743;51.228;22.498;2024-03-07T01:01:43;-0.40;99.90
23149;DHT22;11743;51.228;22.498;2024-03-07T01:02:05;-0.50;99.90
23149;DHT22;11743;51.228;22.498;2024-03-07T01:02:27;-0.50;99.90
23149;DHT22;11743;51.228;22.498;2024-03-07T01:02:49;-0.50;99.90
23149;DHT22;11743;51.228;22.498;2024-03-07T01:03:11;-0.50;99.90
23149;DHT22;11743;51.228;22.498;2024-03-07T01:03:35;-0.50;99.90
23149;DHT22;11743;51.228;22.498;2024-03-07T01:03:57;-0.50;99.90
23149;DHT22;11743;51.228;22.498;2024-03-07T01:04:18;-0.50;99.90
23149;DHT22;11743;51.228;22.498;2024-03-07T01:04:40;-0.50;99.90
23149;DHT22;11743;51.228;22.498;2024-03-07T01:05:02;-0.50;99.90
23149;DHT22;11743;51.228;22.498;2024-03-07T01:05:30;-0.50;99.90
23149;DHT22;11743;51.228;22.498;2024-03-07T01:05:51;-0.50;99.90
23149;DHT22;11743;51.228;22.498;2024-03-07T01:06:14;-0.50;99.90
23149;DHT22;11743;51.228;22.498;2024-03-07T01:06:36;-0.50;99.90
23149;DHT22;11743;51.228;22.498;2024-03-07T01:06:59;-0.50;99.90
23149;DHT22;11743;51.228;22.498;2024-03-07T01:07:21;-0.50;99.90
23149;DHT22;11743;51.228;22.498;2024-03-07T01:07:45;-0.50;99.90
23149;DHT22;11743;51.228;22.498;2024-03-07T01:08:09;-0.50;99.90
23149;DHT22;11743;51.228;22.498;2024-03-07T01:08:31;-0.50;99.90
23149;DHT22;11743;51.228;22.498;2024-03-07T01:08:55;-0.50;99.90
23149;DHT22;11743;51.228;22.498;2024-03-07T01:09:16;-0.50;99.90
23149;DHT22;11743;51.228;22.498;2024-03-07T01:09:40;-0.50;99.90
23149;DHT22;11743;51.228;22.498;2024-03-07T01:10:03;-0.50;99.90
23149;DHT22;11743;51.228;22.498;2024-03-07T01:10:27;-0.50;99.90
23149;DHT22;11743;51.228;22.498;2024-03-07T01:10:50;-0.50;99.90
23149;DHT22;11743;51.228;22.498;2024-03-07T01:11:12;-0.30;99.90
23149;DHT22;11743;51.228;22.498;2024-03-07T01:11:34;-0.50;99.90
23149;DHT22;11743;51.228;22.498;2024-03-07T01:11:56;-0.50;99.90
23149;DHT22;11743;51.228;22.498;2024-03-07T01:12:18;-0.50;99.90
23149;DHT22;11743;51.228;22.498;2024-03-07T01:12:44;0.20;99.90
23149;DHT22;11743;51.228;22.498;2024-03-07T01:13:06;-0.50;99.90
23149;DHT22;11743;51.228;22.498;2024-03-07T01:13:30;-0.50;99.90
23149;DHT22;11743;51.228;22.498;2024-03-07T01:13:52;-0.50;99.90
23149;DHT22;11743;51.228;22.498;2024-03-07T01:14:13;-0.40;99.90
23149;DHT22;11743;51.228;22.498;2024-03-07T01:14:35;-0.50;99.90
23149;DHT22;11743;51.228;22.498;2024-03-07T01:14:57;-0.50;99.90
23149;DHT22;11743;51.228;22.498;2024-03-07T01:15:20;-0.50;99.90
23149;DHT22;11743;51.228;22.498;2024-03-07T01:15:43;-0.50;99.90
23149;DHT22;11743;51.228;22.498;2024-03-07T01:16:05;-0.50;99.90
23149;DHT22;11743;51.228;22.498;2024-03-07T01:16:27;-0.50;99.90
23149;DHT22;11743;51.228;22.498;2024-03-07T01:16:49;-0.50;99.90
23149;DHT22;11743;51.228;22.498;2024-03-07T01:17:11;-0.50;99.90
23149;DHT22;11743;51.228;22.498;2024-03-07T01:17:33;-0.50;99.90
23149;DHT22;11743;51.228;22.498;2024-03-07T01:17:55;-0.60;99.90
23149;DHT22;11743;51.228;22.498;2024-03-07T01:18:17;-0.50;99.90
23149;DHT22;11743;51.228;22.498;2024-03-07T01:18:40;-0.60;99.90
23149;DHT22;11743;51.228;22.498;2024-03-07T01:19:02;-0.60;99.90
23149;DHT22;11743;51.228;22.498;2024-03-07T01:19:27;-0.60;99.90
23149;DHT22;11743;51.228;22.498;2024-03-07T01:19:49;-0.60;99.90
23149;DHT22;11743;51.228;22.498;2024-03-07T01:20:11;-0.60;99.90
23149;DHT22;11743;51.228;22.498;2024-03-07T01:20:33;-0.60;99.90
23149;DHT22;11743;51.228;22.498;2024-03-07T01:20:55;-0.60;99.90
23149;DHT22;11743;51.228;22.498;2024-03-07T01:21:17;-0.70;99.90
23149;DHT22;11743;51.228;22.498;2024-03-07T01:21:39;-0.70;99.90
23149;DHT22;11743;51.228;22.498;2024-03-07T01:22:01;-0.70;99.90
23149;DHT22;11743;51.228;22.498;2024-03-07T01:22:23;-0.70;99.90
23149;DHT22;11743;51.228;22.498;2024-03-07T01:22:45;-0.70;99.90
23149;DHT22;11743;51.228;22.498;2024-03-07T01:23:07;-0.70;99.90
23149;DHT22;11743;51.228;22.498;2024-03-07T01:23:32;-0.70;99.90
23149;DHT22;11743;51.228;22.498;2024-03-07T01:23:55;-0.70;99.90
23149;DHT22;11743;51.228;22.498;2024-03-07T01:24:17;-0.80;99.90
23149;DHT22;11743;51.228;22.498;2024-03-07T01:24:42;-0.80;99.90
23149;DHT22;11743;51.228;22.498;2024-03-07T01:25:04;-0.80;99.90
23149;DHT22;11743;51.228;22.498;2024-03-07T01:25:25;-0.80;99.90
23149;DHT22;11743;51.228;22.498;2024-03-07T01:25:48;-0.80;99.90
23149;DHT22;11743;51.228;22.498;2024-03-07T01:26:10;-0.80;99.90
23149;DHT22;11743;51.228;22.498;2024-03-07T01:26:32;-0.50;99.90
23149;DHT22;11743;51.228;22.498;2024-03-07T01:26:55;-0.90;99.90
23149;DHT22;11743;51.228;22.498;2024-03-07T01:27:17;-0.90;99.90
23149;DHT22;11743;51.228;22.498;2024-03-07T01:27:39;0.20;99.90
23149;DHT22;11743;51.228;22.498;2024-03-07T01:28:01;-0.90;99.90
23149;DHT22;11743;51.228;22.498;2024-03-07T01:28:26;-0.90;99.90
23149;DHT22;11743;51.228;22.498;2024-03-07T01:28:51;-0.90;99.90
23149;DHT22;11743;51.228;22.498;2024-03-07T01:29:13;-0.90;99.90
23149;DHT22;11743;51.228;22.498;2024-03-07T01:29:35;-0.90;99.90
23149;DHT22;11743;51.228;22.498;2024-03-07T01:29:57;-0.90;99.90
23149;DHT22;11743;51.228;22.498;2024-03-07T01:30:22;-0.90;99.90
23149;DHT22;11743;51.228;22.498;2024-03-07T01:30:45;-0.90;99.90
23149;DHT22;11743;51.228;22.498;2024-03-07T01:31:06;-0.90;99.90
23149;DHT22;11743;51.228;22.498;2024-03-07T01:31:28;-0.10;99.90
23149;DHT22;11743;51.228;22.498;2024-03-07T01:31:50;-0.90;99.90
23149;DHT22;11743;51.228;22.498;2024-03-07T01:32:12;-1.00;99.90
23149;DHT22;11743;51.228;22.498;2024-03-07T01:32:34;-1.00;99.90
23149;DHT22;11743;51.228;22.498;2024-03-07T01:32:56;-1.00;99.90
23149;DHT22;11743;51.228;22.498;2024-03-07T01:33:19;-1.00;99.90
23149;DHT22;11743;51.228;22.498;2024-03-07T01:33:41;-1.00;99.90
23149;DHT22;11743;51.228;22.498;2024-03-07T01:34:03;-1.00;99.90
23149;DHT22;11743;51.228;22.498;2024-03-07T01:34:24;-1.00;99.90
23149;DHT22;11743;51.228;22.498;2024-03-07T01:34:46;-1.00;99.90
23149;DHT22;11743;51.228;22.498;2024-03-07T01:35:08;-1.00;99.90
23149;DHT22;11743;51.228;22.498;2024-03-07T01:35:31;-1.10;99.90
23149;DHT22;11743;51.228;22.498;2024-03-07T01:35:53;-1.00;99.90
23149;DHT22;11743;51.228;22.498;2024-03-07T01:36:15;-1.00;99.90
23149;DHT22;11743;51.228;22.498;2024-03-07T01:36:37;-1.00;99.90
23149;DHT22;11743;51.228;22.498;2024-03-07T01:36:59;-1.10;99.90
23149;DHT22;11743;51.228;22.498;2024-03-07T01:37:20;-1.00;99.90
23149;DHT22;11743;51.228;22.498;2024-03-07T01:37:42;-1.00;99.90
23149;DHT22;11743;51.228;22.498;2024-03-07T01:38:04;-1.00;99.90
23149;DHT22;11743;51.228;22.498;2024-03-07T01:38:26;-1.00;99.90
23149;DHT22;11743;51.228;22.498;2024-03-07T01:38:48;-1.10;99.90
23149;DHT22;11743;51.228;22.498;2024-03-07T01:39:10;-1.10;99.90
23149;DHT22;11743;51.228;22.498;2024-03-07T01:39:32;-1.10;99.90
23149;DHT22;11743;51.228;22.498;2024-03-07T01:39:54;-1.10;99.90
23149;DHT22;11743;51.228;22.498;2024-03-07T01:40:16;-1.10;99.90
23149;DHT22;11743;51.228;22.498;2024-03-07T01:40:38;-1.10;99.90
23149;DHT22;11743;51.228;22.498;2024-03-07T01:41:00;-1.20;99.90
23149;DHT22;11743;51.228;22.498;2024-03-07T01:41:22;-1.10;99.90
23149;DHT22;11743;51.228;22.498;2024-03-07T01:41:44;-1.10;99.90
23149;DHT22;11743;51.228;22.498;2024-03-07T01:42:06;-1.10;99.90
23149;DHT22;11743;51.228;22.498;2024-03-07T01:42:29;-1.20;99.90
23149;DHT22;11743;51.228;22.498;2024-03-07T01:42:51;-1.20;99.90
23149;DHT22;11743;51.228;22.498;2024-03-07T01:43:13;-1.20;99.90
23149;DHT22;11743;51.228;22.498;2024-03-07T01:43:35;-1.20;99.90
23149;DHT22;11743;51.228;22.498;2024-03-07T01:43:57;-1.20;99.90
23149;DHT22;11743;51.228;22.498;2024-03-07T01:44:18;-1.20;99.90
23149;DHT22;11743;51.228;22.498;2024-03-07T01:44:40;-1.20;99.90
23149;DHT22;11743;51.228;22.498;2024-03-07T01:45:03;-1.20;99.90
23149;DHT22;11743;51.228;22.498;2024-03-07T01:45:25;-1.20;99.90
23149;DHT22;11743;51.228;22.498;2024-03-07T01:45:47;-1.20;99.90
23149;DHT22;11743;51.228;22.498;2024-03-07T01:46:10;-1.20;99.90
23149;DHT22;11743;51.228;22.498;2024-03-07T01:46:32;-1.20;99.90
23149;DHT22;11743;51.228;22.498;2024-03-07T01:46:54;-1.20;99.90
23149;DHT22;11743;51.228;22.498;2024-03-07T01:47:16;-1.20;99.90
23149;DHT22;11743;51.228;22.498;2024-03-07T01:47:37;-1.20;99.90
23149;DHT22;11743;51.228;22.498;2024-03-07T01:48:00;-1.20;99.90
23149;DHT22;11743;51.228;22.498;2024-03-07T01:48:26;-1.30;99.90
23149;DHT22;11743;51.228;22.498;2024-03-07T01:48:50;-1.30;99.90
23149;DHT22;11743;51.228;22.498;2024-03-07T01:49:12;-1.30;99.90
23149;DHT22;11743;51.228;22.498;2024-03-07T01:49:34;-1.30;99.90
23149;DHT22;11743;51.228;22.498;2024-03-07T01:49:56;-1.30;99.90
23149;DHT22;11743;51.228;22.498;2024-03-07T01:50:18;-1.30;99.90
23149;DHT22;11743;51.228;22.498;2024-03-07T01:50:40;-1.30;99.90
23149;DHT22;11743;51.228;22.498;2024-03-07T01:51:02;-1.30;99.90
23149;DHT22;11743;51.228;22.498;2024-03-07T01:51:25;-1.30;99.90
23149;DHT22;11743;51.228;22.498;2024-03-07T01:51:48;-1.30;99.90
23149;DHT22;11743;51.228;22.498;2024-03-07T01:52:11;-1.30;99.90
23149;DHT22;11743;51.228;22.498;2024-03-07T01:52:33;-1.30;99.90
23149;DHT22;11743;51.228;22.498;2024-03-07T01:52:55;-1.30;99.90
23149;DHT22;11743;51.228;22.498;2024-03-07T01:53:17;-1.30;99.90
23149;DHT22;11743;51.228;22.498;2024-03-07T01:53:39;-1.40;99.90
23149;DHT22;11743;51.228;22.498;2024-03-07T01:54:02;-1.30;99.90
23149;DHT22;11743;51.228;22.498;2024-03-07T01:54:25;-1.40;99.90
23149;DHT22;11743;51.228;22.498;2024-03-07T01:54:47;-1.40;99.90
23149;DHT22;11743;51.228;22.498;2024-03-07T01:55:11;-1.40;99.90
23149;DHT22;11743;51.228;22.498;2024-03-07T01:55:33;-1.50;99.90
23149;DHT22;11743;51.228;22.498;2024-03-07T01:55:56;-1.40;99.90
23149;DHT22;11743;51.228;22.498;2024-03-07T01:56:20;-1.50;99.90
23149;DHT22;11743;51.228;22.498;2024-03-07T01:56:43;-1.50;99.90
23149;DHT22;11743;51.228;22.498;2024-03-07T01:57:05;-1.50;99.90
23149;DHT22;11743;51.228;22.498;2024-03-07T01:57:27;-1.50;99.90
23149;DHT22;11743;51.228;22.498;2024-03-07T01:57:50;-1.50;99.90
23149;DHT22;11743;51.228;22.498;2024-03-07T01:58:14;-1.50;99.90
23149;DHT22;11743;51.228;22.498;2024-03-07T01:58:39;-1.50;99.90
23149;DHT22;11743;51.228;22.498;2024-03-07T01:59:01;-1.50;99.90
23149;DHT22;11743;51.228;22.498;2024-03-07T01:59:24;-1.40;99.90
23149;DHT22;11743;51.228;22.498;2024-03-07T01:59:48;-1.40;99.90
23149;DHT22;11743;51.228;22.498;2024-03-07T02:00:12;-1.40;99.90
23149;DHT22;11743;51.228;22.498;2024-03-07T02:00:34;-1.40;99.90
23149;DHT22;11743;51.228;22.498;2024-03-07T02:00:56;-1.40;99.90
23149;DHT22;11743;51.228;22.498;2024-03-07T02:01:19;-1.40;99.90
23149;DHT22;11743;51.228;22.498;2024-03-07T02:01:42;-1.30;99.90
23149;DHT22;11743;51.228;22.498;2024-03-07T02:02:04;-1.30;99.90
23149;DHT22;11743;51.228;22.498;2024-03-07T02:02:29;-1.30;99.90
23149;DHT22;11743;51.228;22.498;2024-03-07T02:02:52;-1.40;99.90
23149;DHT22;11743;51.228;22.498;2024-03-07T02:03:15;-1.30;99.90
23149;DHT22;11743;51.228;22.498;2024-03-07T02:03:36;-1.30;99.90
23149;DHT22;11743;51.228;22.498;2024-03-07T02:03:58;-1.30;99.90
23149;DHT22;11743;51.228;22.498;2024-03-07T02:04:20;-1.30;99.90
23149;DHT22;11743;51.228;22.498;2024-03-07T02:04:42;-1.40;99.90
23149;DHT22;11743;51.228;22.498;2024-03-07T02:05:04;-1.30;99.90
23149;DHT22;11743;51.228;22.498;2024-03-07T02:05:27;-1.30;99.90
23149;DHT22;11743;51.228;22.498;2024-03-07T02:05:49;-1.30;99.90
23149;DHT22;11743;51.228;22.498;2024-03-07T02:06:12;-1.40;99.90
23149;DHT22;11743;51.228;22.498;2024-03-07T02:06:34;-1.40;99.90
23149;DHT22;11743;51.228;22.498;2024-03-07T02:06:57;-1.40;99.90
23149;DHT22;11743;51.228;22.498;2024-03-07T02:07:22;-1.40;99.90
23149;DHT22;11743;51.228;22.498;2024-03-07T02:07:44;-1.30;99.90
23149;DHT22;11743;51.228;22.498;2024-03-07T02:08:06;-1.40;99.90
23149;DHT22;11743;51.228;22.498;2024-03-07T02:08:28;-1.30;99.90
23149;DHT22;11743;51.228;22.498;2024-03-07T02:08:49;-1.40;99.90
23149;DHT22;11743;51.228;22.498;2024-03-07T02:09:14;-1.40;99.90
23149;DHT22;11743;51.228;22.498;2024-03-07T02:09:36;-1.40;99.90
23149;DHT22;11743;51.228;22.498;2024-03-07T02:10:00;-1.40;99.90
23149;DHT22;11743;51.228;22.498;2024-03-07T02:10:22;-1.40;99.90
23149;DHT22;11743;51.228;22.498;2024-03-07T02:10:44;-1.40;99.90
23149;DHT22;11743;51.228;22.498;2024-03-07T02:11:06;-1.40;99.90
23149;DHT22;11743;51.228;22.498;2024-03-07T02:11:31;-1.40;99.90
23149;DHT22;11743;51.228;22.498;2024-03-07T02:11:56;-1.40;99.90
23149;DHT22;11743;51.228;22.498;2024-03-07T02:12:18;-1.40;99.90
23149;DHT22;11743;51.228;22.498;2024-03-07T02:12:40;-1.40;99.90
23149;DHT22;11743;51.228;22.498;2024-03-07T02:13:02;-1.40;99.90
23149;DHT22;11743;51.228;22.498;2024-03-07T02:13:24;-1.40;99.90
23149;DHT22;11743;51.228;22.498;2024-03-07T02:13:47;-1.40;99.90
23149;DHT22;11743;51.228;22.498;2024-03-07T02:14:09;-1.40;99.90
23149;DHT22;11743;51.228;22.498;2024-03-07T02:14:31;-1.30;99.90
23149;DHT22;11743;51.228;22.498;2024-03-07T02:14:53;-1.30;99.90
23149;DHT22;11743;51.228;22.498;2024-03-07T02:15:15;-1.30;99.90
23149;DHT22;11743;51.228;22.498;2024-03-07T02:15:36;-1.30;99.90
23149;DHT22;11743;51.228;22.498;2024-03-07T02:15:58;-1.30;99.90
23149;DHT22;11743;51.228;22.498;2024-03-07T02:16:20;-1.30;99.90
23149;DHT22;11743;51.228;22.498;2024-03-07T02:16:42;-1.30;99.90
23149;DHT22;11743;51.228;22.498;2024-03-07T02:17:05;-1.30;99.90
23149;DHT22;11743;51.228;22.498;2024-03-07T02:17:28;-1.30;99.90
23149;DHT22;11743;51.228;22.498;2024-03-07T02:17:50;-1.30;99.90
23149;DHT22;11743;51.228;22.498;2024-03-07T02:18:12;-1.30;99.90
23149;DHT22;11743;51.228;22.498;2024-03-07T02:18:35;-1.30;99.90
23149;DHT22;11743;51.228;22.498;2024-03-07T02:18:59;-1.20;99.90
23149;DHT22;11743;51.228;22.498;2024-03-07T02:19:21;-1.20;99.90
23149;DHT22;11743;51.228;22.498;2024-03-07T02:19:43;-1.20;99.90
23149;DHT22;11743;51.228;22.498;2024-03-07T02:20:05;-1.20;99.90
23149;DHT22;11743;51.228;22.498;2024-03-07T02:20:29;-1.20;99.90
23149;DHT22;11743;51.228;22.498;2024-03-07T02:20:51;-1.20;99.90